Time;durP1;ratioP1;P1;durP2;ratioP2;P2;SDS_P1;SDS_P2;PMS_P1;PMS_P2;Temp;Humidity;BMP_temperature;BMP_pressure;BME280_temperature;BME280_humidity;BME280_pressure;Samples;Min_cycle;Max_cycle;Signal;HPM_P1;HPM_P2
2022/02/28 00:01:22;;;;;;;3.40;1.53;;;9.80;1.00;;;;;;5073140;28;20228;-72
2022/02/28 00:03:50;;;;;;;3.67;1.67;;;9.80;1.00;;;;;;5073202;28;20289;-76
2022/02/28 00:06:17;;;;;;;4.33;1.33;;;9.80;1.00;;;;;;5072658;28;20297;-75
2022/02/28 00:08:44;;;;;;;4.43;1.63;;;9.80;1.00;;;;;;5073135;28;20264;-73
2022/02/28 00:11:11;;;;;;;3.90;1.90;;;9.80;1.00;;;;;;5072386;28;20206;-77
2022/02/28 00:13:39;;;;;;;4.10;1.90;;;9.70;1.00;;;;;;5073129;28;20258;-76
2022/02/28 00:16:07;;;;;;;5.13;1.30;;;9.70;1.00;;;;;;5071899;28;20202;-73
2022/02/28 00:18:35;;;;;;;7.87;3.07;;;9.70;1.00;;;;;;5072946;28;20234;-73
2022/02/28 00:21:02;;;;;;;3.80;1.77;;;9.70;1.00;;;;;;5072527;28;20206;-74
2022/02/28 00:23:29;;;;;;;4.13;1.90;;;9.80;1.00;;;;;;5072551;28;20259;-75
2022/02/28 00:25:57;;;;;;;3.87;1.57;;;9.80;1.00;;;;;;5072272;28;20206;-73
2022/02/28 00:28:24;;;;;;;3.87;1.30;;;9.80;1.00;;;;;;5072669;28;20252;-76
2022/02/28 00:30:51;;;;;;;6.97;1.60;;;9.90;1.00;;;;;;5072682;28;20252;-74
2022/02/28 00:33:20;;;;;;;3.23;1.73;;;9.90;1.00;;;;;;5072991;28;20202;-75
2022/02/28 00:35:47;;;;;;;4.03;1.70;;;9.80;1.00;;;;;;5072099;28;20738;-75
2022/02/28 00:38:14;;;;;;;6.57;1.80;;;9.90;1.00;;;;;;5071660;28;20666;-73
2022/02/28 00:40:41;;;;;;;4.47;1.60;;;9.90;1.00;;;;;;5072218;28;20201;-76
2022/02/28 00:43:08;;;;;;;5.97;2.33;;;9.80;1.00;;;;;;5072180;28;20279;-74
2022/02/28 00:45:35;;;;;;;4.37;1.67;;;9.80;1.00;;;;;;5072395;28;20665;-77
2022/02/28 00:48:02;;;;;;;4.17;1.43;;;9.70;1.00;;;;;;5072026;28;20206;-79
2022/02/28 00:50:31;;;;;;;2.00;1.60;;;9.70;1.00;;;;;;5071997;28;20206;-77
2022/02/28 00:52:58;;;;;;;4.17;1.97;;;9.80;1.00;;;;;;5071532;28;20206;-75
2022/02/28 00:55:25;;;;;;;3.60;1.70;;;9.80;1.00;;;;;;5071430;28;20255;-77
2022/02/28 00:57:52;;;;;;;7.37;2.60;;;9.80;1.00;;;;;;5072275;28;20229;-76
2022/02/28 01:00:20;;;;;;;4.60;1.47;;;9.80;1.00;;;;;;5072089;28;20252;-79
2022/02/28 01:02:48;;;;;;;5.03;2.27;;;9.90;1.00;;;;;;5072260;28;20298;-78
2022/02/28 01:05:16;;;;;;;2.20;1.87;;;9.90;1.00;;;;;;5071126;28;20244;-75
2022/02/28 01:07:45;;;;;;;3.10;1.90;;;9.90;1.00;;;;;;5071960;28;20618;-79
2022/02/28 01:10:14;;;;;;;4.50;1.70;;;9.90;1.00;;;;;;5071752;28;20782;-79
2022/02/28 01:12:42;;;;;;;4.33;1.20;;;9.90;1.00;;;;;;5072112;28;20252;-79
2022/02/28 01:15:12;;;;;;;5.80;1.60;;;9.90;1.00;;;;;;5071670;28;20206;-79
2022/02/28 01:17:39;;;;;;;4.40;2.43;;;9.90;1.00;;;;;;5071784;28;20255;-76
2022/02/28 01:20:08;;;;;;;2.70;1.53;;;9.90;1.00;;;;;;5071097;28;20198;-80
2022/02/28 01:22:35;;;;;;;3.37;1.53;;;9.80;1.00;;;;;;5065342;28;20207;-78
2022/02/28 01:25:04;;;;;;;4.10;1.63;;;9.70;1.00;;;;;;5051433;28;20206;-73
2022/02/28 01:27:31;;;;;;;4.17;2.07;;;9.70;1.00;;;;;;5051672;28;20203;-75
2022/02/28 01:29:59;;;;;;;3.07;1.40;;;9.60;1.00;;;;;;5052278;28;20202;-78
2022/02/28 01:32:26;;;;;;;4.53;1.33;;;9.50;1.00;;;;;;5071440;28;20259;-77
2022/02/28 01:34:53;;;;;;;3.10;1.63;;;9.50;1.00;;;;;;5070691;28;20697;-76
2022/02/28 01:37:20;;;;;;;2.57;1.70;;;9.40;1.00;;;;;;5071530;28;20256;-80
2022/02/28 01:39:47;;;;;;;5.57;1.53;;;9.50;1.00;;;;;;5071607;28;20237;-79
2022/02/28 01:42:16;;;;;;;5.30;1.37;;;9.40;1.00;;;;;;5071094;28;20206;-77
2022/02/28 01:44:43;;;;;;;3.07;1.67;;;9.40;1.00;;;;;;5071211;28;20252;-78
2022/02/28 01:47:11;;;;;;;4.47;1.87;;;9.40;1.00;;;;;;5070785;28;20201;-78
2022/02/28 01:49:38;;;;;;;3.57;1.37;;;9.30;1.00;;;;;;5070700;28;20206;-77
2022/02/28 01:52:06;;;;;;;5.27;1.73;;;9.20;1.00;;;;;;5070886;28;20202;-77
2022/02/28 01:54:33;;;;;;;5.17;2.10;;;9.30;1.00;;;;;;5070966;28;20259;-79
2022/02/28 01:57:00;;;;;;;6.47;1.53;;;9.20;1.00;;;;;;5070614;28;20202;-78
2022/02/28 01:59:29;;;;;;;6.13;1.93;;;9.30;1.00;;;;;;5071213;28;20287;-79
2022/02/28 02:01:55;;;;;;;6.07;2.03;;;9.20;1.00;;;;;;5070423;28;20232;-79
2022/02/28 02:04:22;;;;;;;2.07;1.40;;;9.10;1.00;;;;;;5071084;28;20234;-74
2022/02/28 02:06:49;;;;;;;5.97;2.10;;;9.00;1.00;;;;;;5070380;28;20205;-79
2022/02/28 02:09:17;;;;;;;7.13;2.03;;;9.10;1.00;;;;;;5070732;28;20206;-79
2022/02/28 02:11:44;;;;;;;4.60;1.47;;;9.00;1.00;;;;;;5071022;28;20202;-79
2022/02/28 02:14:11;;;;;;;5.53;1.60;;;9.00;1.00;;;;;;5070436;28;20214;-79
2022/02/28 02:16:41;;;;;;;3.37;1.40;;;8.90;1.00;;;;;;5071199;28;20198;-78
2022/02/28 02:19:08;;;;;;;2.93;1.13;;;8.90;1.00;;;;;;5070451;28;20260;-78
2022/02/28 02:21:36;;;;;;;6.47;1.93;;;8.70;1.00;;;;;;5070171;28;20260;-80
2022/02/28 02:24:03;;;;;;;5.13;2.00;;;8.80;1.00;;;;;;5070634;28;20665;-79
2022/02/28 02:26:30;;;;;;;3.13;1.63;;;8.80;1.00;;;;;;5070260;28;20248;-79
2022/02/28 02:28:57;;;;;;;4.23;1.90;;;8.80;1.00;;;;;;5070757;28;20252;-76
2022/02/28 02:31:24;;;;;;;6.63;1.40;;;8.90;1.00;;;;;;5070785;28;20259;-79
2022/02/28 02:33:51;;;;;;;4.17;1.93;;;8.80;1.00;;;;;;5071001;28;20255;-78
2022/02/28 02:36:19;;;;;;;5.93;1.40;;;8.80;1.00;;;;;;5070305;28;20248;-79
2022/02/28 02:38:48;;;;;;;2.67;1.53;;;8.80;1.00;;;;;;5070951;28;20608;-79
2022/02/28 02:41:15;;;;;;;3.63;1.90;;;8.80;1.00;;;;;;5070834;28;20202;-78
2022/02/28 02:43:42;;;;;;;3.60;2.10;;;8.70;1.00;;;;;;5071201;28;20211;-80
2022/02/28 02:46:09;;;;;;;3.70;1.63;;;8.70;1.00;;;;;;5070134;28;20202;-79
2022/02/28 02:48:36;;;;;;;6.90;1.87;;;8.50;1.00;;;;;;5070471;28;20210;-81
2022/02/28 02:51:02;;;;;;;3.60;1.43;;;8.50;1.00;;;;;;5070328;28;20676;-80
2022/02/28 02:53:29;;;;;;;3.43;1.50;;;8.60;1.00;;;;;;5070625;28;20256;-82
2022/02/28 02:55:58;;;;;;;6.63;2.10;;;8.50;1.00;;;;;;5070364;28;20674;-82
2022/02/28 02:58:25;;;;;;;6.83;1.73;;;8.60;1.00;;;;;;5070789;28;20234;-81
2022/02/28 03:00:54;;;;;;;7.77;1.83;;;8.50;1.00;;;;;;5069689;28;20259;-69
2022/02/28 03:03:23;;;;;;;4.07;1.80;;;8.40;1.00;;;;;;5070596;28;20206;-79
2022/02/28 03:05:51;;;;;;;5.00;1.97;;;8.30;1.00;;;;;;5070027;28;20198;-77
2022/02/28 03:08:19;;;;;;;6.93;2.53;;;8.30;1.00;;;;;;5070793;28;20252;-82
2022/02/28 03:10:46;;;;;;;6.03;2.07;;;8.20;1.00;;;;;;5069546;28;20267;-77
2022/02/28 03:13:14;;;;;;;5.73;2.87;;;8.10;1.00;;;;;;5069973;28;20673;-80
2022/02/28 03:15:42;;;;;;;2.80;1.53;;;8.10;1.00;;;;;;5070405;28;20260;-79
2022/02/28 03:18:09;;;;;;;6.33;1.77;;;8.00;1.00;;;;;;5072612;28;20202;-79
2022/02/28 03:20:36;;;;;;;4.03;2.57;;;8.00;1.00;;;;;;5073831;28;20238;-78
2022/02/28 03:23:03;;;;;;;4.87;1.90;;;7.90;1.00;;;;;;5073850;28;20206;-79
2022/02/28 03:25:30;;;;;;;8.37;2.10;;;7.90;1.00;;;;;;5073842;28;20670;-77
2022/02/28 03:27:57;;;;;;;4.03;1.33;;;7.90;1.00;;;;;;5073198;28;20725;-80
2022/02/28 03:30:25;;;;;;;6.03;2.17;;;7.70;1.00;;;;;;5073797;28;20206;-79
2022/02/28 03:32:52;;;;;;;10.50;1.90;;;7.80;1.00;;;;;;5073264;28;20202;-71
2022/02/28 03:35:19;;;;;;;6.33;2.37;;;7.70;1.00;;;;;;5073496;28;20674;-76
2022/02/28 03:37:46;;;;;;;5.50;2.60;;;7.60;1.00;;;;;;5073537;28;20217;-80
2022/02/28 03:40:13;;;;;;;19.47;2.53;;;7.70;1.00;;;;;;5073419;28;20229;-78
2022/02/28 03:42:41;;;;;;;2.93;1.20;;;7.60;1.00;;;;;;5073691;28;20255;-79
2022/02/28 03:45:08;;;;;;;4.00;1.87;;;7.60;1.00;;;;;;5073751;28;20197;-78
2022/02/28 03:47:37;;;;;;;4.20;2.00;;;7.50;1.00;;;;;;5074195;28;20252;-77
2022/02/28 03:50:05;;;;;;;5.17;2.03;;;7.40;1.00;;;;;;5073791;28;20275;-78
2022/02/28 03:52:32;;;;;;;1.97;1.77;;;7.40;1.00;;;;;;5074932;28;20202;-73
2022/02/28 03:54:59;;;;;;;7.03;2.43;;;7.40;1.00;;;;;;5073370;28;20260;-77
2022/02/28 03:57:26;;;;;;;3.83;1.73;;;7.40;1.00;;;;;;5073545;28;20202;-79
2022/02/28 03:59:53;;;;;;;5.37;1.50;;;7.50;1.00;;;;;;5072836;28;20225;-74
2022/02/28 04:02:20;;;;;;;5.03;1.87;;;7.50;1.00;;;;;;5072738;28;20214;-77
2022/02/28 04:04:49;;;;;;;5.00;1.93;;;7.50;1.00;;;;;;5073553;28;20293;-77
2022/02/28 04:07:16;;;;;;;4.93;1.73;;;7.50;1.00;;;;;;5073027;28;20228;-82
2022/02/28 04:09:43;;;;;;;4.50;2.23;;;7.50;1.00;;;;;;5073545;28;20631;-82
2022/02/28 04:12:11;;;;;;;5.27;2.30;;;7.50;1.00;;;;;;5074474;28;20198;-72
2022/02/28 04:14:38;;;;;;;3.23;1.97;;;7.40;1.00;;;;;;5076680;28;20202;-79
2022/02/28 04:17:05;;;;;;;6.10;2.10;;;7.40;1.00;;;;;;5073807;28;20210;-80
2022/02/28 04:19:32;;;;;;;5.73;2.20;;;7.30;1.00;;;;;;5073061;28;20230;-77
2022/02/28 04:22:01;;;;;;;3.60;2.37;;;7.30;1.00;;;;;;5072742;28;20202;-79
2022/02/28 04:24:28;;;;;;;5.37;1.90;;;7.30;1.00;;;;;;5072736;28;20202;-76
2022/02/28 04:26:55;;;;;;;3.83;2.00;;;7.20;1.00;;;;;;5072301;28;20206;-81
2022/02/28 04:29:22;;;;;;;4.90;1.73;;;7.30;1.00;;;;;;5072114;28;20255;-73
2022/02/28 04:31:49;;;;;;;5.90;2.07;;;7.20;1.00;;;;;;5073015;28;20263;-78
2022/02/28 04:34:17;;;;;;;4.60;1.87;;;7.20;1.00;;;;;;5072209;28;20202;-79
2022/02/28 04:36:44;;;;;;;5.07;1.83;;;7.20;1.00;;;;;;5072537;28;20606;-77
2022/02/28 04:39:13;;;;;;;7.40;3.33;;;7.20;1.00;;;;;;5072156;28;20704;-81
2022/02/28 04:41:40;;;;;;;4.00;1.90;;;7.20;1.00;;;;;;5072182;28;20198;-77
2022/02/28 04:44:07;;;;;;;10.50;2.93;;;7.10;1.00;;;;;;5072059;28;20673;-80
2022/02/28 04:46:34;;;;;;;5.70;2.63;;;7.00;1.00;;;;;;5072179;28;20210;-81
2022/02/28 04:49:01;;;;;;;11.00;2.70;;;7.00;1.00;;;;;;5072029;28;20210;-79
2022/02/28 04:51:28;;;;;;;5.60;2.07;;;7.00;1.00;;;;;;5072359;28;20206;-79
2022/02/28 04:53:55;;;;;;;7.73;2.40;;;7.00;1.00;;;;;;5071889;28;20730;-76
2022/02/28 04:56:23;;;;;;;4.73;2.17;;;7.00;1.00;;;;;;5071687;28;20244;-70
2022/02/28 04:58:51;;;;;;;6.40;2.40;;;7.00;1.00;;;;;;5071751;28;20209;-71
2022/02/28 05:01:18;;;;;;;5.93;2.43;;;7.00;1.00;;;;;;5072545;28;20351;-81
2022/02/28 05:03:45;;;;;;;6.00;2.17;;;6.90;1.00;;;;;;5072288;28;20206;-81
2022/02/28 05:06:13;;;;;;;8.87;2.63;;;6.90;1.00;;;;;;5071414;28;20206;-79
2022/02/28 05:08:40;;;;;;;4.20;2.63;;;6.90;1.00;;;;;;5071496;28;20627;-81
2022/02/28 05:11:07;;;;;;;2.90;1.50;;;7.00;1.00;;;;;;5071832;28;20237;-81
2022/02/28 05:13:35;;;;;;;3.53;1.87;;;6.90;1.00;;;;;;5070473;28;20210;-80
2022/02/28 05:16:02;;;;;;;3.50;1.90;;;6.90;1.00;;;;;;5071607;28;20202;-79
2022/02/28 05:18:29;;;;;;;6.20;2.10;;;6.90;1.00;;;;;;5071855;28;20259;-77
2022/02/28 05:20:56;;;;;;;3.53;2.47;;;6.80;1.00;;;;;;5071316;28;20234;-77
2022/02/28 05:23:23;;;;;;;9.03;2.73;;;6.70;1.00;;;;;;5074686;28;20202;-74
2022/02/28 05:25:50;;;;;;;5.57;2.00;;;6.70;1.00;;;;;;5075879;28;20251;-81
2022/02/28 05:28:17;;;;;;;8.10;2.53;;;6.60;1.00;;;;;;5071351;28;20283;-80
2022/02/28 05:30:47;;;;;;;4.67;1.83;;;6.60;1.00;;;;;;5071736;28;20205;-75
2022/02/28 05:33:15;;;;;;;5.93;3.10;;;6.70;1.00;;;;;;5071182;28;20281;-78
2022/02/28 05:35:42;;;;;;;7.93;2.47;;;6.80;1.00;;;;;;5069396;28;20202;-77
2022/02/28 05:38:09;;;;;;;7.93;3.60;;;6.80;1.00;;;;;;5070639;28;20210;-79
2022/02/28 05:40:37;;;;;;;6.33;2.27;;;6.70;1.00;;;;;;5070565;28;20295;-80
2022/02/28 05:43:04;;;;;;;10.87;4.63;;;6.70;1.00;;;;;;5071238;28;20203;-81
2022/02/28 05:45:35;;;;;;;7.90;1.60;;;6.70;1.00;;;;;;5071209;28;20601;-75
2022/02/28 05:48:04;;;;;;;4.33;2.47;;;6.70;1.00;;;;;;5070842;28;20209;-79
2022/02/28 05:50:31;;;;;;;3.67;1.97;;;6.50;1.00;;;;;;5070932;28;20256;-80
2022/02/28 05:53:00;;;;;;;6.47;2.07;;;6.50;1.00;;;;;;5070225;28;20297;-74
2022/02/28 05:55:27;;;;;;;8.73;4.63;;;6.40;1.00;;;;;;5071079;28;20210;-80
2022/02/28 05:57:54;;;;;;;2.87;2.40;;;6.40;1.00;;;;;;5070574;28;20276;-77
2022/02/28 06:00:21;;;;;;;5.27;2.87;;;6.30;1.00;;;;;;5070741;28;20225;-80
2022/02/28 06:02:50;;;;;;;4.17;2.17;;;6.30;1.00;;;;;;5071392;28;20618;-78
2022/02/28 06:05:18;;;;;;;5.60;2.70;;;6.30;1.00;;;;;;5070256;28;20198;-77
2022/02/28 06:07:45;;;;;;;7.10;2.37;;;6.30;1.00;;;;;;5071264;28;20207;-79
2022/02/28 06:10:12;;;;;;;5.60;2.13;;;6.20;1.00;;;;;;5070432;28;20283;-79
2022/02/28 06:12:40;;;;;;;5.17;2.20;;;6.20;1.00;;;;;;5085798;28;20629;-80
2022/02/28 06:15:09;;;;;;;10.73;2.63;;;6.20;1.00;;;;;;5090437;28;20201;-81
2022/02/28 06:17:36;;;;;;;6.27;3.17;;;6.20;1.00;;;;;;5090464;28;20205;-80
2022/02/28 06:20:05;;;;;;;5.97;2.60;;;6.10;1.00;;;;;;5079060;28;20240;-81
2022/02/28 06:22:33;;;;;;;6.90;2.50;;;6.10;1.00;;;;;;5090587;28;20255;-82
2022/02/28 06:25:00;;;;;;;4.30;2.60;;;6.10;1.00;;;;;;5090500;28;20205;-83
2022/02/28 06:27:27;;;;;;;6.10;2.07;;;6.10;1.00;;;;;;5077121;28;20674;-82
2022/02/28 06:29:54;;;;;;;7.60;2.70;;;6.10;1.00;;;;;;5087637;28;20209;-80
2022/02/28 06:32:21;;;;;;;4.73;2.37;;;6.10;1.00;;;;;;5090817;28;20251;-77
2022/02/28 06:34:49;;;;;;;5.40;2.60;;;6.00;1.00;;;;;;5072698;28;20206;-82
2022/02/28 06:37:16;;;;;;;5.83;2.80;;;6.00;1.00;;;;;;5076068;28;20271;-76
2022/02/28 06:39:45;;;;;;;8.10;3.20;;;6.00;1.00;;;;;;5082275;28;20269;-81
2022/02/28 06:42:12;;;;;;;10.03;3.53;;;6.10;1.00;;;;;;5090122;28;20327;-77
2022/02/28 06:44:39;;;;;;;7.40;3.70;;;6.00;1.00;;;;;;5089299;28;20254;-83
2022/02/28 06:47:06;;;;;;;8.70;4.03;;;6.10;1.00;;;;;;5090307;28;20213;-82
2022/02/28 06:49:33;;;;;;;6.57;4.10;;;6.00;1.00;;;;;;5090012;28;20210;-83
2022/02/28 06:52:00;;;;;;;6.50;3.67;;;6.10;1.00;;;;;;5091912;28;20235;-82
2022/02/28 06:54:27;;;;;;;7.73;4.23;;;6.20;1.00;;;;;;5093205;28;20205;-82
2022/02/28 06:56:56;;;;;;;7.40;2.83;;;6.20;1.00;;;;;;5081863;28;20216;-81
2022/02/28 06:59:23;;;;;;;6.63;3.07;;;6.20;1.00;;;;;;5093919;28;20722;-78
2022/02/28 07:01:50;;;;;;;5.07;2.20;;;6.30;1.00;;;;;;5084549;28;20243;-80
2022/02/28 07:04:17;;;;;;;4.20;3.10;;;6.30;1.00;;;;;;5092631;28;20221;-73
2022/02/28 07:06:44;;;;;;;7.17;2.57;;;6.40;1.00;;;;;;5086126;28;20684;-76
2022/02/28 07:09:11;;;;;;;6.07;3.27;;;6.40;1.00;;;;;;5072446;28;20253;-84
2022/02/28 07:11:40;;;;;;;7.47;2.73;;;6.50;1.00;;;;;;5074242;28;20287;-83
2022/02/28 07:14:08;;;;;;;7.90;2.67;;;8.60;1.00;;;;;;5064744;28;20277;-73
2022/02/28 07:16:36;;;;;;;7.77;2.83;;;6.80;1.00;;;;;;5071663;28;20203;-72
2022/02/28 07:19:03;;;;;;;7.73;2.77;;;6.80;1.00;;;;;;5070675;28;20198;-73
2022/02/28 07:21:30;;;;;;;3.23;2.07;;;7.10;1.00;;;;;;5072577;28;20225;-74
2022/02/28 07:23:57;;;;;;;3.70;2.23;;;7.20;1.00;;;;;;5073084;28;20727;-74
2022/02/28 07:26:25;;;;;;;5.17;2.40;;;7.40;1.00;;;;;;5073578;28;20294;-72
2022/02/28 07:28:52;;;;;;;5.03;2.07;;;7.40;1.00;;;;;;5073921;28;20289;-73
2022/02/28 07:31:21;;;;;;;5.20;2.20;;;7.60;1.00;;;;;;5074219;28;20202;-72
2022/02/28 07:33:48;;;;;;;4.33;2.27;;;7.70;1.00;;;;;;5074000;28;20202;-72
2022/02/28 07:36:15;;;;;;;10.77;2.23;;;7.80;1.00;;;;;;5073408;28;20260;-73
2022/02/28 07:38:42;;;;;;;6.87;2.87;;;7.80;1.00;;;;;;5073382;28;20206;-73
2022/02/28 07:41:09;;;;;;;5.30;3.40;;;7.80;1.00;;;;;;5073123;28;20234;-73
2022/02/28 07:43:37;;;;;;;6.27;2.07;;;8.00;1.00;;;;;;5073515;28;20541;-73
2022/02/28 07:46:04;;;;;;;6.70;2.90;;;8.70;1.00;;;;;;5073362;28;20202;-73
2022/02/28 07:48:32;;;;;;;4.50;2.00;;;9.10;1.00;;;;;;5073512;28;20560;-72
2022/02/28 07:50:59;;;;;;;6.03;1.90;;;10.70;99.90;;;;;;5073070;28;20202;-73
2022/02/28 07:53:26;;;;;;;3.83;3.27;;;9.20;1.00;;;;;;5073258;28;20264;-72
2022/02/28 07:55:53;;;;;;;5.43;2.47;;;9.90;1.00;;;;;;5073222;28;20206;-73
2022/02/28 07:58:20;;;;;;;5.50;3.00;;;10.40;1.00;;;;;;5073607;28;20264;-72
2022/02/28 08:00:47;;;;;;;4.10;2.40;;;10.20;1.00;;;;;;5073067;28;20784;-72
2022/02/28 08:03:14;;;;;;;5.50;2.37;;;10.10;1.00;;;;;;5071831;28;20198;-72
2022/02/28 08:05:43;;;;;;;5.47;2.33;;;10.20;1.00;;;;;;5073828;28;20221;-72
2022/02/28 08:08:09;;;;;;;5.07;2.70;;;10.50;1.00;;;;;;5079720;28;20255;-72
2022/02/28 08:10:37;;;;;;;4.60;2.90;;;11.10;1.00;;;;;;5087376;28;20202;-72
2022/02/28 08:13:04;;;;;;;4.87;2.10;;;11.30;1.00;;;;;;5075181;28;20752;-72
2022/02/28 08:15:31;;;;;;;7.40;2.30;;;10.60;1.00;;;;;;5084079;28;20210;-74
2022/02/28 08:17:58;;;;;;;6.10;1.97;;;10.40;1.00;;;;;;5076742;28;20247;-73
2022/02/28 08:20:25;;;;;;;5.03;1.97;;;10.10;1.00;;;;;;5078012;28;20226;-73
2022/02/28 08:22:53;;;;;;;5.80;2.20;;;10.20;1.00;;;;;;5074085;28;20630;-73
2022/02/28 08:25:20;;;;;;;9.50;3.90;;;10.40;1.00;;;;;;5076022;28;20264;-72
2022/02/28 08:27:48;;;;;;;5.77;2.23;;;11.40;1.00;;;;;;5081764;28;20602;-71
2022/02/28 08:30:15;;;;;;;8.77;2.10;;;12.00;1.00;;;;;;5070135;28;20201;-72
2022/02/28 08:32:42;;;;;;;5.57;2.30;;;12.30;1.00;;;;;;5090429;28;20260;-71
2022/02/28 08:35:10;;;;;;;5.30;1.80;;;11.80;1.00;;;;;;5069856;28;20271;-75
2022/02/28 08:37:37;;;;;;;8.20;1.83;;;11.20;1.00;;;;;;5071243;28;20202;-73
2022/02/28 08:40:07;;;;;;;5.17;3.20;;;11.10;1.00;;;;;;5073443;28;20618;-73
2022/02/28 08:42:34;;;;;;;5.03;2.40;;;10.90;1.00;;;;;;5076634;28;20213;-74
2022/02/28 08:45:03;;;;;;;7.67;2.20;;;11.10;1.00;;;;;;5084368;28;20557;-75
2022/02/28 08:47:30;;;;;;;3.70;1.70;;;12.30;1.00;;;;;;5092253;28;20293;-71
2022/02/28 08:50:00;;;;;;;3.57;1.40;;;;;;;;;;5090568;28;20270;-70
2022/02/28 08:52:27;;;;;;;6.97;2.13;;;11.40;1.00;;;;;;5091081;28;20224;-73
2022/02/28 08:54:54;;;;;;;6.43;2.17;;;11.90;1.00;;;;;;5090784;28;20685;-73
2022/02/28 08:57:23;;;;;;;7.03;2.20;;;13.40;1.00;;;;;;5086285;28;20209;-71
2022/02/28 08:59:49;;;;;;;2.93;1.70;;;12.80;1.00;;;;;;5077684;28;20197;-72
2022/02/28 09:02:17;;;;;;;8.03;2.70;;;13.20;1.00;;;;;;5078992;28;20278;-71
2022/02/28 09:04:44;;;;;;;3.43;1.90;;;12.40;1.00;;;;;;5075958;28;20265;-70
2022/02/28 09:07:11;;;;;;;7.07;1.77;;;;;;;;;;5082295;28;20201;-72
2022/02/28 09:09:38;;;;;;;6.10;3.67;;;12.00;1.00;;;;;;5070793;28;20202;-73
2022/02/28 09:12:06;;;;;;;4.60;1.57;;;11.90;1.00;;;;;;5074415;28;20210;-71
2022/02/28 09:14:36;;;;;;;5.50;1.30;;;11.90;1.00;;;;;;5080246;28;20214;-72
2022/02/28 09:17:04;;;;;;;4.13;1.60;;;12.00;1.00;;;;;;5071173;28;20309;-73
2022/02/28 09:19:31;;;;;;;3.50;1.33;;;11.90;1.00;;;;;;5075339;28;20277;-72
2022/02/28 09:21:58;;;;;;;4.57;2.00;;;12.10;1.00;;;;;;5078535;28;20622;-73
2022/02/28 09:24:28;;;;;;;5.50;2.27;;;12.30;1.00;;;;;;5074113;28;20202;-73
2022/02/28 09:26:55;;;;;;;9.20;2.00;;;12.30;1.00;;;;;;5069861;28;20213;-72
2022/02/28 09:29:22;;;;;;;5.77;1.77;;;12.20;1.00;;;;;;5084817;28;20198;-74
2022/02/28 09:31:50;;;;;;;3.50;1.80;;;12.70;1.00;;;;;;5090595;28;20201;-72
2022/02/28 09:34:17;;;;;;;8.93;2.27;;;13.00;1.00;;;;;;5086313;28;20206;-73
2022/02/28 09:36:44;;;;;;;6.23;1.80;;;13.00;1.00;;;;;;5084683;28;20259;-73
2022/02/28 09:39:11;;;;;;;5.20;1.58;;;13.20;1.00;;;;;;5076940;28;20224;-73
2022/02/28 09:41:38;;;;;;;5.73;1.83;;;13.10;1.00;;;;;;5066835;28;20304;-73
2022/02/28 09:44:06;;;;;;;6.57;2.60;;;13.20;1.00;;;;;;5070481;28;20206;-74
2022/02/28 09:46:34;;;;;;;5.18;1.92;;;13.40;1.00;;;;;;5084935;28;20205;-71
2022/02/28 09:49:03;;;;;;;4.35;1.80;;;13.50;1.00;;;;;;5070133;28;20206;-73
2022/02/28 09:51:30;;;;;;;3.85;2.10;;;13.70;1.00;;;;;;5071124;28;20334;-71
2022/02/28 09:53:57;;;;;;;2.92;1.40;;;14.30;1.00;;;;;;5074617;28;20201;-72
2022/02/28 09:56:25;;;;;;;4.00;1.73;;;14.60;1.00;;;;;;5090137;28;20262;-71
2022/02/28 09:58:52;;;;;;;7.10;1.60;;;14.40;1.00;;;;;;5082124;28;20204;-71
2022/02/28 10:01:19;;;;;;;5.32;1.70;;;14.40;1.00;;;;;;5073919;28;20226;-70
2022/02/28 10:03:46;;;;;;;5.50;2.28;;;14.50;1.00;;;;;;5074829;28;20205;-71
2022/02/28 10:06:15;;;;;;;3.88;2.22;;;16.70;1.00;;;;;;5081388;28;20210;-71
2022/02/28 10:08:43;;;;;;;4.85;2.38;;;19.00;1.00;;;;;;5083102;28;20202;-72
2022/02/28 10:11:27;;;;;;;2.85;1.20;;;17.10;1.00;;;;;;5086874;28;20201;-71
2022/02/28 10:13:56;;;;;;;5.15;2.00;;;16.80;1.00;;;;;;5074552;28;20692;-73
2022/02/28 10:16:34;;;;;;;8.40;2.10;;;15.80;1.00;;;;;;5070290;28;20670;-69
2022/02/28 10:19:03;;;;;;;4.65;1.80;;;15.80;1.00;;;;;;5085719;28;20213;-72
2022/02/28 10:21:44;;;;;;;5.78;3.10;;;18.50;1.00;;;;;;5090555;28;20225;-71
2022/02/28 10:24:13;;;;;;;3.20;1.77;;;22.00;1.00;;;;;;5077981;28;21077;-70
2022/02/28 10:26:45;;;;;;;2.70;2.28;;;22.20;1.00;;;;;;5074578;28;20260;-74
2022/02/28 10:29:14;;;;;;;3.67;1.65;;;20.60;1.00;;;;;;5075636;28;20618;-76
2022/02/28 10:31:43;;;;;;;3.40;1.90;;;21.90;1.00;;;;;;5083884;28;20205;-75
2022/02/28 10:34:18;;;;;;;5.13;2.28;;;24.70;1.00;;;;;;5075105;28;20201;-74
2022/02/28 10:36:48;;;;;;;6.78;3.30;;;23.10;1.00;;;;;;5079894;28;20205;-74
2022/02/28 10:39:22;;;;;;;3.78;1.83;;;24.90;1.00;;;;;;5083715;28;20197;-74
2022/02/28 10:41:49;;;;;;;5.40;2.03;;;19.00;1.00;;;;;;5090616;28;20282;-75
2022/02/28 10:44:16;;;;;;;6.18;1.83;;;17.50;1.00;;;;;;5088221;28;20259;-73
2022/02/28 10:46:45;;;;;;;4.97;2.13;;;16.70;1.00;;;;;;5089873;28;20217;-73
2022/02/28 10:49:16;;;;;;;4.53;1.73;;;16.60;1.00;;;;;;5089623;28;20658;-76
2022/02/28 10:51:52;;;;;;;4.18;2.25;;;16.00;1.00;;;;;;5090413;28;20292;-71
2022/02/28 10:54:22;;;;;;;3.17;2.30;;;16.00;1.00;;;;;;5081235;28;20202;-71
2022/02/28 10:57:00;;;;;;;5.75;2.45;;;15.90;1.00;;;;;;5074073;28;20214;-72
2022/02/28 10:59:30;;;;;;;4.47;1.92;;;15.80;1.00;;;;;;5059834;28;20260;-74
2022/02/28 11:01:58;;;;;;;2.90;1.25;;;15.90;1.00;;;;;;5083234;28;20228;-76
2022/02/28 11:04:39;;;;;;;7.05;1.60;;;16.30;1.00;;;;;;5089742;28;20737;-73
2022/02/28 11:07:10;;;;;;;3.88;2.08;;;16.00;1.00;;;;;;5090035;28;20205;-73
2022/02/28 11:09:39;;;;;;;4.32;1.55;;;15.90;1.00;;;;;;5090091;28;20268;-73
2022/02/28 11:12:20;;;;;;;3.47;1.75;;;16.00;1.00;;;;;;5090005;28;20258;-73
2022/02/28 11:14:48;;;;;;;2.47;1.15;;;16.00;1.00;;;;;;5090309;28;20289;-73
2022/02/28 11:17:18;;;;;;;6.07;1.73;;;15.80;1.00;;;;;;5089473;28;20688;-72
2022/02/28 11:19:47;;;;;;;4.60;1.80;;;16.10;1.00;;;;;;5090154;28;20205;-73
2022/02/28 11:22:17;;;;;;;5.72;1.55;;;16.00;1.00;;;;;;5085468;28;20325;-77
2022/02/28 11:24:46;;;;;;;4.60;2.28;;;16.20;1.00;;;;;;5069498;28;20206;-76
2022/02/28 11:27:13;;;;;;;5.25;1.70;;;16.30;1.00;;;;;;5069906;28;20202;-77
2022/02/28 11:29:41;;;;;;;5.07;1.65;;;16.30;1.00;;;;;;5069824;28;20202;-77
2022/02/28 11:32:09;;;;;;;2.35;1.52;;;16.50;1.00;;;;;;5069552;28;20210;-77
2022/02/28 11:34:36;;;;;;;4.90;2.15;;;16.50;1.00;;;;;;5070021;28;20221;-77
2022/02/28 11:37:05;;;;;;;4.40;2.20;;;16.10;1.00;;;;;;5069995;28;20259;-76
2022/02/28 11:39:35;;;;;;;2.40;1.58;;;15.80;1.00;;;;;;5072383;28;20240;-76
2022/02/28 11:42:05;;;;;;;3.33;1.30;;;15.90;1.00;;;;;;5073345;28;20321;-76
2022/02/28 11:44:36;;;;;;;3.78;1.40;;;15.80;1.00;;;;;;5074679;28;20202;-78
2022/02/28 11:47:06;;;;;;;2.58;1.48;;;16.20;1.00;;;;;;5072812;28;20297;-78
2022/02/28 11:49:41;;;;;;;3.53;1.50;;;16.40;1.00;;;;;;5073610;28;20206;-77
2022/02/28 11:52:31;;;;;;;3.33;1.50;;;16.80;1.00;;;;;;5073398;28;20201;-77
2022/02/28 11:55:05;;;;;;;3.92;1.90;;;16.70;1.00;;;;;;5073142;28;20202;-78
2022/02/28 11:57:49;;;;;;;7.70;2.63;;;16.80;1.00;;;;;;5073180;28;20213;-77
2022/02/28 12:00:21;;;;;;;3.45;2.38;;;16.80;1.00;;;;;;5072204;28;20206;-77
2022/02/28 12:02:48;;;;;;;5.00;2.28;;;16.60;1.00;;;;;;5071230;28;20234;-77
2022/02/28 12:05:39;;;;;;;3.28;1.50;;;16.50;1.00;;;;;;5088642;28;20215;-77
2022/02/28 12:08:06;;;;;;;3.42;1.75;;;16.50;1.00;;;;;;5084321;28;20551;-73
2022/02/28 12:10:38;;;;;;;4.95;2.20;;;16.70;1.00;;;;;;5081784;28;20201;-72
2022/02/28 12:13:05;;;;;;;2.90;2.22;;;16.60;1.00;;;;;;5079515;28;20237;-71
2022/02/28 12:15:32;;;;;;;5.57;2.05;;;16.60;1.00;;;;;;5072906;28;20260;-77
2022/02/28 12:18:07;;;;;;;4.88;2.25;;;16.80;1.00;;;;;;5072749;28;20202;-74
2022/02/28 12:20:43;;;;;;;15.35;3.88;;;16.80;1.00;;;;;;5072972;28;20263;-77
2022/02/28 12:23:26;;;;;;;5.45;2.05;;;16.90;1.00;;;;;;5072364;28;20320;-80
2022/02/28 12:26:10;;;;;;;7.30;1.70;;;17.00;1.00;;;;;;5070343;28;20202;-78
2022/02/28 12:28:55;;;;;;;4.05;1.92;;;17.00;1.00;;;;;;5074210;28;20678;-79
2022/02/28 12:31:37;;;;;;;4.53;2.05;;;17.10;1.00;;;;;;5079174;28;20202;-78
2022/02/28 12:34:10;;;;;;;3.10;1.75;;;17.30;1.00;;;;;;5070483;28;20210;-78
2022/02/28 12:36:40;;;;;;;5.70;2.10;;;17.30;1.00;;;;;;5076876;28;20210;-77
2022/02/28 12:39:11;;;;;;;5.90;2.00;;;17.00;1.00;;;;;;5072624;28;20206;-77
2022/02/28 12:41:45;;;;;;;3.45;1.98;;;16.70;1.00;;;;;;5079341;28;20312;-77
2022/02/28 12:44:15;;;;;;;3.97;1.92;;;16.40;1.00;;;;;;5077904;28;20198;-76
2022/02/28 12:46:45;;;;;;;3.97;2.40;;;16.80;1.00;;;;;;5080105;28;20270;-76
2022/02/28 12:49:14;;;;;;;7.90;2.90;;;17.00;1.00;;;;;;5086104;28;20249;-76
2022/02/28 12:51:42;;;;;;;4.35;1.80;;;17.00;1.00;;;;;;5081229;28;20268;-79
2022/02/28 12:54:12;;;;;;;5.25;2.00;;;17.40;1.00;;;;;;5084502;28;20230;-77
2022/02/28 12:56:46;;;;;;;4.15;2.65;;;17.90;1.00;;;;;;5084561;28;20202;-77
2022/02/28 12:59:13;;;;;;;6.47;2.42;;;18.10;1.00;;;;;;5085259;28;20217;-76
2022/02/28 13:01:41;;;;;;;4.80;1.92;;;16.40;1.00;;;;;;5081840;28;20284;-76
2022/02/28 13:04:09;;;;;;;8.40;2.38;;;18.00;1.00;;;;;;5080852;28;20202;-78
2022/02/28 13:06:38;;;;;;;6.65;1.98;;;16.80;1.00;;;;;;5076298;28;20271;-77
2022/02/28 13:09:08;;;;;;;3.78;2.17;;;16.80;1.00;;;;;;5072543;28;20251;-75